Time;durP1;ratioP1;P1;durP2;ratioP2;P2;SDS_P1;SDS_P2;PMS_P1;PMS_P2;Temp;Humidity;BMP_temperature;BMP_pressure;BME280_temperature;BME280_humidity;BME280_pressure;Samples;Min_cycle;Max_cycle;Signal;HPM_P1;HPM_P2
2024/01/04 00:01:12;;;;;;;1.65;1.10;;;7.30;99.90;;;;;;5073142;28;20733;-65
2024/01/04 00:03:39;;;;;;;2.55;1.20;;;7.30;99.90;;;;;;5073346;28;20193;-64
2024/01/04 00:06:06;;;;;;;3.55;1.35;;;7.30;99.90;;;;;;5073463;28;20205;-65
2024/01/04 00:08:34;;;;;;;1.90;0.95;;;7.30;99.90;;;;;;5073043;28;20202;-64
2024/01/04 00:11:03;;;;;;;2.05;1.08;;;7.20;99.90;;;;;;5073075;28;20670;-65
2024/01/04 00:13:30;;;;;;;2.00;1.20;;;7.20;99.90;;;;;;5073439;28;20209;-65
2024/01/04 00:15:56;;;;;;;2.03;1.58;;;7.20;99.90;;;;;;5073322;28;20208;-65
2024/01/04 00:18:23;;;;;;;2.47;1.52;;;7.20;99.90;;;;;;5073030;28;20698;-65
2024/01/04 00:20:50;;;;;;;3.67;1.45;;;7.30;99.90;;;;;;5073501;28;20578;-66
2024/01/04 00:23:17;;;;;;;3.30;1.90;;;7.30;99.90;;;;;;5073464;28;20203;-65
2024/01/04 00:25:45;;;;;;;2.35;1.83;;;7.30;99.90;;;;;;5073747;28;20205;-65
2024/01/04 00:28:12;;;;;;;2.45;2.20;;;7.30;99.90;;;;;;5076836;28;20201;-65
2024/01/04 00:30:39;;;;;;;3.15;2.20;;;7.30;99.90;;;;;;5080575;28;20208;-65
2024/01/04 00:33:06;;;;;;;3.38;2.67;;;7.30;99.90;;;;;;5081420;28;20588;-64
2024/01/04 00:35:32;;;;;;;4.13;2.38;;;7.30;99.90;;;;;;5079665;28;20201;-65
2024/01/04 00:38:00;;;;;;;2.13;1.92;;;7.30;99.90;;;;;;5077977;28;20221;-65
2024/01/04 00:40:28;;;;;;;3.08;2.00;;;7.30;99.90;;;;;;5076684;28;20266;-64
2024/01/04 00:42:57;;;;;;;3.75;2.35;;;7.30;99.90;;;;;;5077020;28;20729;-64
2024/01/04 00:45:24;;;;;;;5.78;2.38;;;7.40;99.90;;;;;;5076781;28;20674;-64
2024/01/04 00:47:50;;;;;;;7.45;2.90;;;7.40;99.90;;;;;;5077006;28;20197;-65
2024/01/04 00:50:17;;;;;;;2.60;2.40;;;7.40;99.90;;;;;;5076732;28;20211;-65
2024/01/04 00:52:44;;;;;;;3.55;2.75;;;7.40;99.90;;;;;;5077316;28;20216;-64
2024/01/04 00:55:11;;;;;;;4.13;2.90;;;7.40;99.90;;;;;;5076447;28;20693;-65
2024/01/04 00:57:37;;;;;;;5.80;2.83;;;7.40;99.90;;;;;;5076070;28;20725;-63
2024/01/04 01:00:07;;;;;;;4.85;2.60;;;7.50;99.90;;;;;;5076638;28;20685;-64
2024/01/04 01:02:34;;;;;;;4.65;3.05;;;7.50;99.90;;;;;;5076251;28;20233;-65
2024/01/04 01:05:01;;;;;;;8.10;3.80;;;7.50;99.90;;;;;;5076581;28;20205;-64
2024/01/04 01:07:28;;;;;;;5.75;3.50;;;7.50;99.90;;;;;;5076345;28;20576;-64
2024/01/04 01:09:54;;;;;;;4.88;3.50;;;7.60;99.90;;;;;;5076621;28;20236;-65
2024/01/04 01:12:21;;;;;;;5.53;3.70;;;7.60;99.90;;;;;;5076273;28;20714;-64
2024/01/04 01:14:48;;;;;;;5.10;3.45;;;7.60;99.90;;;;;;5077561;28;20211;-64
2024/01/04 01:17:16;;;;;;;5.57;3.90;;;7.60;99.90;;;;;;5077343;28;20275;-64
2024/01/04 01:19:43;;;;;;;4.53;3.97;;;7.60;99.90;;;;;;5080307;28;20208;-65
2024/01/04 01:22:09;;;;;;;4.72;3.63;;;7.60;99.90;;;;;;5076886;28;20746;-64
2024/01/04 01:24:36;;;;;;;4.28;3.60;;;7.60;99.90;;;;;;5076945;28;20677;-64
2024/01/04 01:27:03;;;;;;;5.22;3.60;;;7.60;99.90;;;;;;5076696;28;20666;-64
2024/01/04 01:29:30;;;;;;;8.57;3.35;;;7.60;99.90;;;;;;5075766;28;20288;-64
2024/01/04 01:31:57;;;;;;;4.40;3.38;;;7.50;99.90;;;;;;5075729;28;20227;-64
2024/01/04 01:34:25;;;;;;;4.72;3.20;;;7.50;99.90;;;;;;5075643;28;20209;-65
2024/01/04 01:36:52;;;;;;;3.67;2.53;;;7.40;99.90;;;;;;5075638;28;20300;-65
2024/01/04 01:39:19;;;;;;;4.43;2.75;;;7.40;99.90;;;;;;5075127;28;20311;-65
2024/01/04 01:41:46;;;;;;;3.75;2.70;;;7.40;99.90;;;;;;5075482;28;20217;-65
2024/01/04 01:44:13;;;;;;;4.90;3.72;;;7.40;99.90;;;;;;5075647;28;20201;-64
2024/01/04 01:46:40;;;;;;;4.55;2.88;;;7.40;99.90;;;;;;5075294;28;20237;-64
2024/01/04 01:49:08;;;;;;;2.83;2.25;;;7.40;99.90;;;;;;5075378;28;20220;-64
2024/01/04 01:51:36;;;;;;;2.65;2.25;;;7.40;99.90;;;;;;5075333;28;20221;-64
2024/01/04 01:54:04;;;;;;;2.80;2.60;;;7.40;99.90;;;;;;5076563;28;20197;-65
2024/01/04 01:56:31;;;;;;;2.40;2.00;;;7.40;99.90;;;;;;5078977;28;20201;-65
2024/01/04 01:59:02;;;;;;;2.13;1.70;;;7.40;99.90;;;;;;5079488;28;20698;-64
2024/01/04 02:01:29;;;;;;;2.85;1.70;;;7.40;99.90;;;;;;5076806;28;20233;-65
2024/01/04 02:03:56;;;;;;;1.38;1.27;;;7.40;99.90;;;;;;5075014;28;20570;-65
2024/01/04 02:06:23;;;;;;;2.45;1.40;;;7.40;99.90;;;;;;5075368;28;20204;-64
2024/01/04 02:08:51;;;;;;;1.70;1.50;;;7.40;99.90;;;;;;5075502;28;20208;-65
2024/01/04 02:11:18;;;;;;;1.70;1.60;;;7.40;99.90;;;;;;5074354;28;20221;-65
2024/01/04 02:13:44;;;;;;;1.85;1.75;;;7.40;99.90;;;;;;5074631;28;20667;-64
2024/01/04 02:16:11;;;;;;;3.88;2.17;;;7.40;99.90;;;;;;5074222;28;20548;-64
2024/01/04 02:18:38;;;;;;;3.22;1.90;;;7.40;99.90;;;;;;5074951;28;20593;-65
2024/01/04 02:21:05;;;;;;;2.88;2.03;;;7.40;99.90;;;;;;5074808;28;20225;-65
2024/01/04 02:23:34;;;;;;;3.75;2.45;;;7.40;99.90;;;;;;5074632;28;20208;-65
2024/01/04 02:26:01;;;;;;;2.22;1.90;;;7.40;99.90;;;;;;5074960;28;20208;-64
2024/01/04 02:28:28;;;;;;;5.15;2.75;;;7.40;99.90;;;;;;5075706;28;20204;-65
2024/01/04 02:30:55;;;;;;;3.15;2.28;;;7.40;99.90;;;;;;5077438;28;20201;-65
2024/01/04 02:33:21;;;;;;;5.30;2.40;;;7.40;99.90;;;;;;5075358;28;20203;-65
2024/01/04 02:35:48;;;;;;;4.40;3.00;;;7.40;99.90;;;;;;5074834;28;20201;-65
2024/01/04 02:38:15;;;;;;;9.60;3.60;;;7.40;99.90;;;;;;5075738;28;20219;-65
2024/01/04 02:40:43;;;;;;;3.20;2.85;;;7.40;99.90;;;;;;5074997;28;20239;-65
2024/01/04 02:43:10;;;;;;;5.15;3.58;;;7.40;99.90;;;;;;5074488;28;20227;-65
2024/01/04 02:45:37;;;;;;;5.15;2.78;;;7.40;99.90;;;;;;5074840;28;20197;-65
2024/01/04 02:48:05;;;;;;;4.13;3.10;;;7.40;99.90;;;;;;5074813;28;20579;-65
2024/01/04 02:50:32;;;;;;;8.10;3.30;;;7.40;99.90;;;;;;5074644;28;20624;-64
2024/01/04 02:52:59;;;;;;;5.93;2.92;;;7.30;99.90;;;;;;5074737;28;20216;-64
2024/01/04 02:55:25;;;;;;;7.28;3.50;;;7.40;99.90;;;;;;5075358;28;20570;-65
2024/01/04 02:57:53;;;;;;;3.65;3.17;;;7.40;99.90;;;;;;5075509;28;20228;-65
2024/01/04 03:00:22;;;;;;;4.55;2.60;;;7.30;99.90;;;;;;5076208;28;20209;-65
2024/01/04 03:02:48;;;;;;;7.60;3.30;;;7.40;99.90;;;;;;5075291;28;20710;-65
2024/01/04 03:05:16;;;;;;;6.35;3.13;;;7.40;99.90;;;;;;5074183;28;20675;-66
2024/01/04 03:07:42;;;;;;;6.00;3.05;;;7.40;99.90;;;;;;5074482;28;20201;-65
2024/01/04 03:10:09;;;;;;;5.35;3.05;;;7.40;99.90;;;;;;5074518;28;20197;-65
2024/01/04 03:12:38;;;;;;;4.90;3.45;;;7.40;99.90;;;;;;5074367;28;20221;-65
2024/01/04 03:15:07;;;;;;;3.85;2.80;;;7.40;99.90;;;;;;5074408;28;20255;-65
2024/01/04 03:17:34;;;;;;;3.10;2.17;;;7.40;99.90;;;;;;5074861;28;20204;-65
2024/01/04 03:20:01;;;;;;;4.47;2.80;;;7.40;99.90;;;;;;5074069;28;20225;-65
2024/01/04 03:22:28;;;;;;;3.15;2.67;;;7.40;99.90;;;;;;5074519;28;20286;-65
2024/01/04 03:24:54;;;;;;;3.10;2.67;;;7.40;99.90;;;;;;5074366;28;20197;-65
2024/01/04 03:27:21;;;;;;;3.40;2.42;;;7.40;99.90;;;;;;5074621;28;20294;-65
2024/01/04 03:29:49;;;;;;;6.00;2.50;;;7.40;99.90;;;;;;5074484;28;20193;-64
2024/01/04 03:32:18;;;;;;;3.22;2.60;;;7.40;99.90;;;;;;5074287;28;20232;-65
2024/01/04 03:34:44;;;;;;;8.10;2.70;;;7.40;99.90;;;;;;5074336;28;20197;-65
2024/01/04 03:37:11;;;;;;;2.75;2.35;;;7.30;99.90;;;;;;5074471;28;20200;-64
2024/01/04 03:39:38;;;;;;;2.80;2.30;;;7.40;99.90;;;;;;5073859;28;20217;-64
2024/01/04 03:42:05;;;;;;;2.00;1.77;;;7.40;99.90;;;;;;5074038;28;20227;-63
2024/01/04 03:44:32;;;;;;;2.13;1.92;;;7.40;99.90;;;;;;5074054;28;20204;-65
2024/01/04 03:46:58;;;;;;;2.20;1.83;;;7.40;99.90;;;;;;5074396;28;20201;-65
2024/01/04 03:49:27;;;;;;;2.65;1.80;;;7.40;99.90;;;;;;5075434;28;20207;-65
2024/01/04 03:51:53;;;;;;;2.22;1.17;;;7.40;99.90;;;;;;5074372;28;20224;-64
2024/01/04 03:54:20;;;;;;;2.63;1.60;;;7.40;99.90;;;;;;5077228;28;20215;-64
2024/01/04 03:56:47;;;;;;;2.47;1.30;;;7.40;99.90;;;;;;5074929;28;20215;-64
2024/01/04 03:59:14;;;;;;;2.20;1.48;;;7.30;99.90;;;;;;5074427;28;20223;-65
2024/01/04 04:01:45;;;;;;;2.15;1.77;;;7.30;99.90;;;;;;5073732;28;20235;-65
2024/01/04 04:04:12;;;;;;;2.92;1.85;;;7.30;99.90;;;;;;5073565;28;20197;-65
2024/01/04 04:06:40;;;;;;;2.97;1.60;;;7.30;99.90;;;;;;5073260;28;20209;-65
2024/01/04 04:09:07;;;;;;;3.17;1.67;;;7.20;99.90;;;;;;5073626;28;20208;-64
2024/01/04 04:12:53;;;;;;;1.88;1.65;;;7.10;99.90;;;;;;5092663;28;20573;-64
2024/01/04 04:15:20;;;;;;;1.38;1.27;;;7.10;99.90;;;;;;5094842;28;20574;-64
2024/01/04 04:17:47;;;;;;;1.85;1.73;;;7.00;99.90;;;;;;5101156;28;20203;-65
2024/01/04 04:20:14;;;;;;;2.05;1.85;;;6.80;99.90;;;;;;5097492;28;20691;-65
2024/01/04 04:22:41;;;;;;;1.52;1.42;;;6.70;99.90;;;;;;5096946;28;20212;-65
2024/01/04 04:25:08;;;;;;;2.83;1.88;;;6.60;99.90;;;;;;5113223;22;20220;-62
2024/01/04 04:27:34;;;;;;;1.70;1.60;;;6.40;99.90;;;;;;5070045;28;20190;-61
2024/01/04 04:30:03;;;;;;;1.40;1.30;;;6.30;99.90;;;;;;5069922;28;20228;-61
2024/01/04 04:32:30;;;;;;;2.03;0.90;;;6.20;99.90;;;;;;5069638;28;20304;-61
2024/01/04 04:34:57;;;;;;;1.50;1.10;;;6.00;99.90;;;;;;5069790;28;20216;-61
2024/01/04 04:37:23;;;;;;;0.88;0.85;;;5.90;99.90;;;;;;5069645;28;20204;-62
2024/01/04 04:39:50;;;;;;;1.17;1.02;;;5.80;99.90;;;;;;5069660;28;20203;-61
2024/01/04 04:42:17;;;;;;;1.60;1.50;;;5.70;99.90;;;;;;5069613;28;20197;-62
2024/01/04 04:44:44;;;;;;;3.10;1.30;;;5.60;99.90;;;;;;5069398;28;20205;-62
2024/01/04 04:47:12;;;;;;;1.40;1.30;;;5.50;99.90;;;;;;5069401;28;20197;-61
2024/01/04 04:49:38;;;;;;;0.88;0.82;;;5.50;99.90;;;;;;5069106;28;20208;-62
2024/01/04 04:52:06;;;;;;;2.05;1.38;;;5.40;99.90;;;;;;5069266;28;20237;-61
2024/01/04 04:54:32;;;;;;;3.30;1.33;;;5.40;99.90;;;;;;5069288;28;20212;-60
2024/01/04 04:57:00;;;;;;;1.45;1.15;;;5.30;99.90;;;;;;5069240;28;20227;-62
2024/01/04 04:59:27;;;;;;;1.70;1.55;;;5.30;99.90;;;;;;5068772;28;20588;-61
2024/01/04 05:01:54;;;;;;;1.83;1.13;;;5.30;99.90;;;;;;5101946;22;20609;-63
2024/01/04 05:04:22;;;;;;;1.50;1.40;;;5.30;99.90;;;;;;5091586;28;20200;-64
2024/01/04 05:06:50;;;;;;;3.58;1.65;;;5.30;99.90;;;;;;5090935;28;20204;-64
2024/01/04 05:09:17;;;;;;;4.07;1.92;;;5.30;99.90;;;;;;5090680;28;20693;-63
2024/01/04 05:11:44;;;;;;;4.90;2.92;;;5.30;99.90;;;;;;5090967;28;20705;-63
2024/01/04 05:14:11;;;;;;;1.70;1.60;;;5.20;99.90;;;;;;5090634;28;20204;-65
2024/01/04 05:16:37;;;;;;;1.75;1.40;;;5.30;99.90;;;;;;5090332;28;20684;-64
2024/01/04 05:19:04;;;;;;;2.22;1.70;;;5.30;99.90;;;;;;5090770;28;20580;-64
2024/01/04 05:21:34;;;;;;;3.17;1.88;;;5.30;99.90;;;;;;5091632;28;20307;-65
2024/01/04 05:24:01;;;;;;;1.70;1.60;;;5.30;99.90;;;;;;5078381;28;20197;-64
2024/01/04 05:26:27;;;;;;;2.42;1.85;;;5.30;99.90;;;;;;5077013;28;20224;-65
2024/01/04 05:28:54;;;;;;;2.25;1.73;;;5.30;99.90;;;;;;5077780;28;20223;-64
2024/01/04 05:31:21;;;;;;;4.22;1.80;;;5.40;99.90;;;;;;5076826;28;20567;-64
2024/01/04 05:33:48;;;;;;;1.92;1.55;;;5.40;99.90;;;;;;5076801;28;20608;-65
2024/01/04 05:36:15;;;;;;;5.00;1.52;;;5.40;99.90;;;;;;5076513;28;20235;-64
2024/01/04 05:38:43;;;;;;;1.95;1.33;;;5.40;99.90;;;;;;5077817;28;20197;-64
2024/01/04 05:41:10;;;;;;;2.45;1.30;;;5.40;99.90;;;;;;5076813;28;20228;-64
2024/01/04 05:43:37;;;;;;;1.50;1.27;;;5.40;99.90;;;;;;5076650;28;20204;-65
2024/01/04 05:46:05;;;;;;;1.15;0.90;;;5.40;99.90;;;;;;5076884;28;20296;-62
2024/01/04 05:48:32;;;;;;;3.25;1.70;;;5.30;99.90;;;;;;5076891;28;20519;-65
2024/01/04 05:50:59;;;;;;;1.25;1.15;;;5.30;99.90;;;;;;5076920;28;20205;-63
2024/01/04 05:53:26;;;;;;;2.90;1.45;;;5.20;99.90;;;;;;5076454;28;20247;-64
2024/01/04 05:55:54;;;;;;;4.43;1.15;;;5.20;99.90;;;;;;5076421;28;20572;-64
2024/01/04 05:58:20;;;;;;;1.95;1.50;;;5.20;99.90;;;;;;5076678;28;20234;-64
2024/01/04 06:00:47;;;;;;;1.75;1.60;;;5.20;99.90;;;;;;5077469;28;20280;-64
2024/01/04 06:03:14;;;;;;;2.55;1.52;;;5.20;99.90;;;;;;5077504;28;20235;-64
2024/01/04 06:05:41;;;;;;;2.45;1.45;;;5.20;99.90;;;;;;5076727;28;20296;-65
2024/01/04 06:08:08;;;;;;;1.95;1.20;;;5.20;99.90;;;;;;5076409;28;20205;-64
2024/01/04 06:10:35;;;;;;;1.40;1.30;;;5.20;99.90;;;;;;5076906;28;20569;-64
2024/01/04 06:13:03;;;;;;;1.70;1.10;;;5.30;99.90;;;;;;5078637;28;20228;-64
2024/01/04 06:15:30;;;;;;;1.45;1.20;;;5.20;99.90;;;;;;5078263;28;20254;-64
2024/01/04 06:17:57;;;;;;;1.00;0.90;;;5.20;99.90;;;;;;5081970;28;20292;-65
2024/01/04 06:20:24;;;;;;;3.25;1.40;;;5.30;99.90;;;;;;5082181;28;20209;-63
2024/01/04 06:22:51;;;;;;;2.55;1.70;;;5.30;99.90;;;;;;5079604;28;20217;-65
2024/01/04 06:25:18;;;;;;;2.50;1.35;;;5.30;99.90;;;;;;5076579;28;20295;-64
2024/01/04 06:27:45;;;;;;;1.67;1.50;;;5.30;99.90;;;;;;5076265;28;20761;-65
2024/01/04 06:30:13;;;;;;;1.50;1.40;;;5.30;99.90;;;;;;5076484;28;20211;-65
2024/01/04 06:32:40;;;;;;;1.00;0.90;;;5.20;99.90;;;;;;5076166;28;20217;-64
2024/01/04 06:35:07;;;;;;;1.83;1.55;;;5.10;99.90;;;;;;5076245;28;20572;-63
2024/01/04 06:37:34;;;;;;;1.90;1.38;;;5.10;99.90;;;;;;5080263;28;20204;-64
2024/01/04 06:40:05;;;;;;;2.20;1.58;;;5.10;99.90;;;;;;5080513;28;20651;-65
2024/01/04 06:42:33;;;;;;;1.88;1.20;;;5.10;99.90;;;;;;5083947;28;20221;-64
2024/01/04 06:45:00;;;;;;;1.60;1.50;;;5.10;99.90;;;;;;5077965;28;20217;-65
2024/01/04 06:47:28;;;;;;;1.50;1.40;;;5.10;99.90;;;;;;5079329;28;20205;-64
2024/01/04 06:49:54;;;;;;;2.28;1.38;;;5.10;99.90;;;;;;5080978;28;20211;-64
2024/01/04 06:52:21;;;;;;;1.70;1.23;;;5.10;99.90;;;;;;5081035;28;20236;-64
2024/01/04 06:54:48;;;;;;;1.10;0.98;;;5.20;99.90;;;;;;5078661;28;20236;-62
2024/01/04 06:57:15;;;;;;;2.75;1.40;;;5.20;99.90;;;;;;5078373;28;20204;-63
2024/01/04 06:59:41;;;;;;;4.22;1.10;;;5.20;99.90;;;;;;5077890;28;20229;-64
2024/01/04 07:02:08;;;;;;;1.02;0.95;;;5.20;99.90;;;;;;5079181;28;20293;-64
2024/01/04 07:04:37;;;;;;;2.00;1.13;;;5.20;99.90;;;;;;5080318;28;20198;-63
2024/01/04 07:07:04;;;;;;;1.52;1.00;;;5.20;99.90;;;;;;5078506;28;20201;-64
2024/01/04 07:09:31;;;;;;;2.35;1.40;;;5.20;99.90;;;;;;5077892;28;20240;-65
2024/01/04 07:11:58;;;;;;;2.15;0.82;;;5.20;99.90;;;;;;5077208;28;20229;-64
2024/01/04 07:14:25;;;;;;;1.02;0.85;;;5.20;99.90;;;;;;5079404;28;20209;-65
2024/01/04 07:16:52;;;;;;;2.10;1.08;;;5.20;99.90;;;;;;5078959;28;20204;-64
2024/01/04 07:19:19;;;;;;;1.30;0.85;;;5.10;99.90;;;;;;5079247;28;20205;-65
2024/01/04 07:21:48;;;;;;;1.00;0.90;;;5.10;99.90;;;;;;5079373;28;20676;-65
2024/01/04 07:24:16;;;;;;;1.30;0.70;;;5.10;99.90;;;;;;5082031;28;20268;-64
2024/01/04 07:26:42;;;;;;;1.63;1.00;;;5.00;99.90;;;;;;5080525;28;20615;-64
2024/01/04 07:29:09;;;;;;;3.05;0.75;;;5.00;99.90;;;;;;5081660;28;20570;-65
2024/01/04 07:31:36;;;;;;;1.33;0.95;;;5.00;99.90;;;;;;5080555;28;20730;-65
2024/01/04 07:34:03;;;;;;;1.77;1.30;;;5.00;99.90;;;;;;5081404;28;20211;-64
2024/01/04 07:36:30;;;;;;;1.80;0.93;;;4.90;99.90;;;;;;5080928;28;20204;-64
2024/01/04 07:38:59;;;;;;;2.28;0.80;;;4.90;99.90;;;;;;5081368;28;20212;-63
2024/01/04 07:41:26;;;;;;;0.98;0.88;;;4.90;99.90;;;;;;5078624;28;20225;-62
2024/01/04 07:43:52;;;;;;;1.30;0.85;;;4.90;99.90;;;;;;5079263;28;20201;-64
2024/01/04 07:46:19;;;;;;;3.78;0.95;;;4.90;99.90;;;;;;5079715;28;20200;-64
2024/01/04 07:48:46;;;;;;;1.98;0.55;;;4.90;99.90;;;;;;5081169;28;20203;-64
2024/01/04 07:51:13;;;;;;;1.98;1.00;;;4.90;99.90;;;;;;5077885;28;20243;-64
2024/01/04 07:53:40;;;;;;;1.85;0.80;;;4.90;99.90;;;;;;5077089;28;20587;-65
2024/01/04 07:56:08;;;;;;;1.20;0.90;;;5.00;99.90;;;;;;5076801;28;20206;-65
2024/01/04 07:58:35;;;;;;;4.03;1.52;;;5.00;99.90;;;;;;5076317;28;20201;-65
2024/01/04 08:01:02;;;;;;;1.30;1.13;;;5.00;99.90;;;;;;5075622;28;20300;-65
2024/01/04 08:03:30;;;;;;;1.20;0.88;;;5.00;99.90;;;;;;5076449;28;20516;-64
2024/01/04 08:05:57;;;;;;;1.80;1.08;;;5.00;99.90;;;;;;5077849;28;20230;-65
2024/01/04 08:08:23;;;;;;;0.90;0.70;;;5.00;99.90;;;;;;5077490;28;20288;-64
2024/01/04 08:10:50;;;;;;;1.85;0.90;;;5.00;99.90;;;;;;5075424;28;20211;-65
2024/01/04 08:13:19;;;;;;;0.95;0.80;;;5.00;99.90;;;;;;5075708;28;20217;-65
2024/01/04 08:15:45;;;;;;;1.70;1.30;;;5.00;99.90;;;;;;5075293;28;20212;-65
2024/01/04 08:18:12;;;;;;;1.42;0.80;;;5.00;99.90;;;;;;5077361;28;20205;-64
2024/01/04 08:20:39;;;;;;;1.35;1.02;;;5.00;99.90;;;;;;5078163;28;20197;-63
2024/01/04 08:23:06;;;;;;;2.25;1.30;;;5.00;99.90;;;;;;5075853;28;20229;-64
2024/01/04 08:25:32;;;;;;;3.65;1.25;;;4.80;99.90;;;;;;5075703;28;20284;-65
2024/01/04 08:27:59;;;;;;;1.40;1.30;;;4.70;99.90;;;;;;5075605;28;20197;-64
2024/01/04 08:30:27;;;;;;;1.65;1.30;;;4.60;99.90;;;;;;5078830;28;20205;-64
2024/01/04 08:32:54;;;;;;;1.80;1.27;;;4.60;99.90;;;;;;5083723;28;20220;-65
2024/01/04 08:35:21;;;;;;;1.65;1.20;;;4.60;99.90;;;;;;5082703;28;20211;-64
2024/01/04 08:37:49;;;;;;;1.80;1.15;;;4.50;99.90;;;;;;5081977;28;20209;-65
2024/01/04 08:40:16;;;;;;;2.33;1.30;;;4.50;99.90;;;;;;5083441;28;20227;-65
2024/01/04 08:42:43;;;;;;;1.70;1.25;;;4.50;99.90;;;;;;5083117;28;20758;-64
2024/01/04 08:45:11;;;;;;;1.45;1.35;;;4.50;99.90;;;;;;5082573;28;20208;-65
2024/01/04 08:47:40;;;;;;;2.80;1.23;;;4.50;99.90;;;;;;5084010;28;20205;-64
2024/01/04 08:50:07;;;;;;;1.67;1.25;;;4.50;99.90;;;;;;5084309;28;20211;-65
2024/01/04 08:52:34;;;;;;;0.90;0.70;;;4.50;99.90;;;;;;5082168;28;20232;-64
2024/01/04 08:55:01;;;;;;;1.05;0.95;;;4.50;99.90;;;;;;5077289;28;20212;-65
2024/01/04 08:57:29;;;;;;;0.80;0.80;;;4.50;99.90;;;;;;5076286;28;20213;-64
2024/01/04 08:59:56;;;;;;;1.40;0.95;;;4.50;99.90;;;;;;5079747;28;20374;-64
2024/01/04 09:02:22;;;;;;;1.00;0.90;;;4.50;99.90;;;;;;5080498;28;20288;-64
2024/01/04 09:04:51;;;;;;;1.00;0.90;;;4.50;99.90;;;;;;5081532;28;20201;-66
2024/01/04 09:07:19;;;;;;;2.00;1.00;;;4.40;99.90;;;;;;5081829;28;20201;-65
2024/01/04 09:09:45;;;;;;;1.50;1.02;;;4.40;99.90;;;;;;5082824;28;20266;-64
2024/01/04 09:12:14;;;;;;;2.15;1.15;;;4.40;99.90;;;;;;5080044;28;20229;-65
2024/01/04 09:14:41;;;;;;;1.73;1.42;;;4.40;99.90;;;;;;5078276;28;20248;-64
2024/01/04 09:17:08;;;;;;;4.10;1.48;;;4.40;99.90;;;;;;5078447;28;20304;-63
2024/01/04 09:19:35;;;;;;;1.40;1.00;;;4.50;99.90;;;;;;5078276;28;20560;-64
2024/01/04 09:22:04;;;;;;;2.17;1.33;;;4.50;99.90;;;;;;5078828;28;20221;-65
2024/01/04 09:24:33;;;;;;;2.22;1.52;;;4.50;99.90;;;;;;5077938;28;20212;-65
2024/01/04 09:27:00;;;;;;;2.38;1.95;;;4.50;99.90;;;;;;5077386;28;20197;-64
2024/01/04 09:29:27;;;;;;;3.00;2.00;;;4.50;99.90;;;;;;5078697;28;20209;-65
2024/01/04 09:31:55;;;;;;;2.13;1.92;;;4.60;99.90;;;;;;5078545;28;20225;-64
2024/01/04 09:34:24;;;;;;;2.28;1.92;;;4.60;99.90;;;;;;5078185;28;20225;-63
2024/01/04 09:36:50;;;;;;;2.63;1.98;;;4.60;99.90;;;;;;5078489;28;20201;-64
2024/01/04 09:39:19;;;;;;;2.40;2.08;;;4.60;99.90;;;;;;5078066;28;20200;-65
2024/01/04 09:41:48;;;;;;;2.65;2.35;;;4.60;99.90;;;;;;5078176;28;20225;-65
2024/01/04 09:44:15;;;;;;;3.63;1.55;;;4.70;99.90;;;;;;5079144;28;20201;-65
2024/01/04 09:46:43;;;;;;;5.53;2.22;;;4.70;99.90;;;;;;5077936;28;20592;-64
2024/01/04 09:49:13;;;;;;;3.03;2.58;;;4.80;99.90;;;;;;5077071;28;20223;-65
2024/01/04 09:51:42;;;;;;;2.92;2.42;;;4.80;99.90;;;;;;5077880;28;20225;-64
2024/01/04 09:54:10;;;;;;;4.45;3.00;;;4.80;99.90;;;;;;5077187;28;20718;-65
2024/01/04 09:56:42;;;;;;;3.60;2.88;;;4.90;99.90;;;;;;5077543;28;20236;-64
2024/01/04 09:59:09;;;;;;;9.75;3.20;;;4.90;99.90;;;;;;5077713;28;20244;-64
2024/01/04 10:01:38;;;;;;;4.63;3.00;;;5.00;99.90;;;;;;5076823;28;20687;-65
2024/01/04 10:04:07;;;;;;;4.20;3.72;;;5.00;99.90;;;;;;5077375;28;20251;-64
2024/01/04 10:06:37;;;;;;;5.10;3.58;;;5.00;99.90;;;;;;5077304;28;20197;-64
2024/01/04 10:09:14;;;;;;;3.40;3.05;;;5.10;99.90;;;;;;5077261;28;20211;-64
2024/01/04 10:11:46;;;;;;;4.45;3.40;;;5.20;99.90;;;;;;5077639;28;20229;-64
2024/01/04 10:14:13;;;;;;;4.60;3.60;;;5.20;99.90;;;;;;5077063;28;20702;-64
2024/01/04 10:16:41;;;;;;;4.72;3.50;;;5.30;99.90;;;;;;5077110;28;20200;-65
2024/01/04 10:19:08;;;;;;;3.50;2.95;;;5.30;99.90;;;;;;5077527;28;20197;-65
2024/01/04 10:21:35;;;;;;;3.80;3.50;;;5.30;99.90;;;;;;5077110;28;20225;-65
2024/01/04 10:24:03;;;;;;;3.67;2.85;;;5.30;99.90;;;;;;5076498;28;20246;-65
2024/01/04 10:26:30;;;;;;;3.50;2.63;;;5.30;99.90;;;;;;5076119;28;20213;-64
2024/01/04 10:28:59;;;;;;;2.60;2.15;;;5.20;99.90;;;;;;5079402;28;20207;-65
2024/01/04 10:31:26;;;;;;;3.20;2.33;;;5.20;99.90;;;;;;5082027;28;20239;-66
2024/01/04 10:34:00;;;;;;;2.58;2.38;;;5.10;99.90;;;;;;5080720;28;20217;-65
2024/01/04 10:36:29;;;;;;;3.22;2.42;;;5.10;99.90;;;;;;5080088;28;20207;-65
2024/01/04 10:38:59;;;;;;;2.45;2.13;;;5.10;99.90;;;;;;5076976;28;20250;-65
2024/01/04 10:41:28;;;;;;;3.78;3.38;;;5.10;99.90;;;;;;5076084;28;20237;-64
2024/01/04 10:44:05;;;;;;;2.83;2.58;;;5.10;99.90;;;;;;5076278;28;20215;-64
2024/01/04 10:46:34;;;;;;;2.75;2.25;;;5.10;99.90;;;;;;5075939;28;20185;-64
2024/01/04 10:49:01;;;;;;;4.20;2.80;;;5.10;99.90;;;;;;5075411;28;20603;-65
2024/01/04 10:51:30;;;;;;;2.90;2.60;;;5.10;99.90;;;;;;5075729;28;20221;-64
2024/01/04 10:53:59;;;;;;;2.90;2.70;;;5.10;99.90;;;;;;5075828;28;20247;-65
2024/01/04 10:56:28;;;;;;;4.60;2.97;;;5.00;99.90;;;;;;5075690;28;20697;-65
2024/01/04 10:58:56;;;;;;;3.72;2.75;;;5.00;99.90;;;;;;5075800;28;20205;-65
2024/01/04 11:01:25;;;;;;;3.58;3.00;;;5.00;99.90;;;;;;5076013;28;20232;-65
2024/01/04 11:03:55;;;;;;;3.60;3.10;;;5.10;99.90;;;;;;5076393;28;20270;-65
2024/01/04 11:06:23;;;;;;;3.35;2.80;;;5.00;99.90;;;;;;5075697;28;20216;-65
2024/01/04 11:08:50;;;;;;;3.78;3.35;;;5.10;99.90;;;;;;5075407;28;20211;-65
2024/01/04 11:11:18;;;;;;;3.03;2.70;;;5.00;99.90;;;;;;5076741;28;20304;-66
2024/01/04 11:13:45;;;;;;;4.00;2.70;;;5.00;99.90;;;;;;5075871;28;20224;-65
2024/01/04 11:16:22;;;;;;;3.65;3.22;;;5.00;99.90;;;;;;5077349;28;20283;-64
2024/01/04 11:19:07;;;;;;;3.42;2.60;;;5.00;99.90;;;;;;5080044;28;20184;-65
2024/01/04 11:21:51;;;;;;;3.17;2.45;;;5.00;99.90;;;;;;5077915;28;20225;-64
2024/01/04 11:24:31;;;;;;;5.90;3.25;;;5.00;99.90;;;;;;5076286;28;20181;-65
2024/01/04 11:27:00;;;;;;;4.18;2.83;;;5.00;99.90;;;;;;5076148;28;20189;-65
2024/01/04 11:29:28;;;;;;;3.13;2.53;;;4.90;99.90;;;;;;5075261;28;20215;-63
2024/01/04 11:31:58;;;;;;;2.83;2.58;;;4.90;99.90;;;;;;5075864;28;20227;-65
2024/01/04 11:34:27;;;;;;;3.13;2.38;;;4.90;99.90;;;;;;5076571;28;20221;-65
2024/01/04 11:37:09;;;;;;;3.17;2.25;;;4.80;99.90;;;;;;5076609;28;20201;-63
2024/01/04 11:39:50;;;;;;;2.88;2.45;;;4.80;99.90;;;;;;5082290;28;20189;-66
2024/01/04 11:42:19;;;;;;;2.72;2.13;;;4.80;99.90;;;;;;5081923;28;20228;-65
2024/01/04 11:44:49;;;;;;;3.08;2.38;;;4.80;99.90;;;;;;5080947;28;20205;-65
2024/01/04 11:47:16;;;;;;;4.88;2.30;;;4.80;99.90;;;;;;5077983;28;20207;-65
2024/01/04 11:49:48;;;;;;;4.68;2.22;;;4.80;99.90;;;;;;5077403;28;20548;-66
2024/01/04 11:52:16;;;;;;;4.07;1.70;;;4.80;99.90;;;;;;5076287;28;20224;-65
2024/01/04 11:54:43;;;;;;;2.05;1.77;;;4.80;99.90;;;;;;5075373;28;20217;-65
2024/01/04 11:57:17;;;;;;;2.15;1.80;;;4.80;99.90;;;;;;5078036;28;20205;-65
2024/01/04 11:59:44;;;;;;;3.22;2.40;;;4.80;99.90;;;;;;5076292;28;20204;-66
2024/01/04 12:02:17;;;;;;;4.93;1.60;;;4.80;99.90;;;;;;5075612;28;20233;-65
2024/01/04 12:04:44;;;;;;;4.18;2.05;;;4.80;99.90;;;;;;5076462;28;20185;-66
2024/01/04 12:07:13;;;;;;;3.85;2.72;;;4.80;99.90;;;;;;5079069;28;20200;-66
2024/01/04 12:09:41;;;;;;;3.45;2.50;;;4.80;99.90;;;;;;5077035;28;20288;-64
2024/01/04 12:12:08;;;;;;;2.45;1.77;;;4.80;99.90;;;;;;5077016;28;20251;-66
2024/01/04 12:14:36;;;;;;;3.65;2.00;;;4.80;99.90;;;;;;5077326;28;20217;-65
2024/01/04 12:17:02;;;;;;;3.80;2.42;;;4.80;99.90;;;;;;5077978;28;20682;-65
2024/01/04 12:19:29;;;;;;;2.03;1.85;;;4.80;99.90;;;;;;5077360;28;20212;-64
2024/01/04 12:21:56;;;;;;;1.50;1.40;;;4.80;99.90;;;;;;5077532;28;20233;-65
2024/01/04 12:24:25;;;;;;;3.63;2.08;;;4.80;99.90;;;;;;5078192;28;20201;-64
2024/01/04 12:26:52;;;;;;;1.70;1.60;;;4.80;99.90;;;;;;5080594;28;20207;-65
2024/01/04 12:29:19;;;;;;;2.85;2.10;;;4.70;99.90;;;;;;5081883;28;20211;-65
2024/01/04 12:31:46;;;;;;;4.72;1.67;;;4.70;99.90;;;;;;5081940;28;20307;-64
2024/01/04 12:34:13;;;;;;;4.07;1.70;;;4.80;99.90;;;;;;5084599;28;20219;-65
2024/01/04 12:36:39;;;;;;;1.90;1.80;;;4.70;99.90;;;;;;5091160;28;20197;-64
2024/01/04 12:39:09;;;;;;;2.55;2.25;;;4.70;99.90;;;;;;5090403;28;20200;-65
2024/01/04 12:41:38;;;;;;;2.13;1.75;;;4.80;99.90;;;;;;5093597;28;20280;-65
2024/01/04 12:44:05;;;;;;;4.28;2.10;;;4.70;99.90;;;;;;5090032;28;20197;-65
2024/01/04 12:46:32;;;;;;;3.30;2.10;;;4.80;99.90;;;;;;5080714;28;20224;-66
2024/01/04 12:49:07;;;;;;;3.05;2.20;;;4.80;99.90;;;;;;5078523;28;20196;-64
2024/01/04 12:51:35;;;;;;;4.05;2.05;;;4.80;99.90;;;;;;5079070;28;20220;-66
2024/01/04 12:54:02;;;;;;;2.60;2.20;;;4.80;99.90;;;;;;5078373;28;20326;-64
2024/01/04 12:56:29;;;;;;;1.95;1.17;;;4.70;99.90;;;;;;5079446;28;20642;-66
2024/01/04 12:59:01;;;;;;;2.08;1.63;;;4.70;99.90;;;;;;5078740;28;20215;-66
2024/01/04 13:01:28;;;;;;;2.83;1.65;;;4.70;99.90;;;;;;5078002;28;20225;-64